createdAt,value
2023-04-18T00:00:24.730Z,19.40
2023-04-18T00:03:16.470Z,17.90
2023-04-18T00:06:04.176Z,19.50
2023-04-18T00:08:50.460Z,19.70
2023-04-18T00:11:36.501Z,20.00
2023-04-18T00:14:23.349Z,17.70
2023-04-18T00:17:09.975Z,21.50
2023-04-18T00:19:58.311Z,20.30
2023-04-18T00:22:46.441Z,20.90
2023-04-18T00:25:33.045Z,22.00
2023-04-18T00:28:19.275Z,17.80
2023-04-18T00:31:05.648Z,23.00
2023-04-18T00:33:52.157Z,23.30
2023-04-18T00:36:38.555Z,19.70
2023-04-18T00:39:26.130Z,20.10
2023-04-18T00:42:13.045Z,17.50
2023-04-18T00:45:00.973Z,19.70
2023-04-18T00:47:47.835Z,24.40
2023-04-18T00:50:36.591Z,23.60
2023-04-18T00:53:23.435Z,21.10
2023-04-18T00:56:10.560Z,20.40
2023-04-18T00:58:57.326Z,24.00
2023-04-18T01:01:44.598Z,23.90
2023-04-18T01:04:32.404Z,20.70
2023-04-18T01:07:18.916Z,24.20
2023-04-18T01:10:05.954Z,22.40
2023-04-18T01:13:19.616Z,25.10
2023-04-18T01:16:06.884Z,24.70
2023-04-18T01:18:53.533Z,28.90
2023-04-18T01:21:43.346Z,23.10
2023-04-18T01:24:32.745Z,22.40
2023-04-18T01:27:19.738Z,24.40
2023-04-18T01:30:07.667Z,26.30
2023-04-18T01:32:54.425Z,22.10
2023-04-18T01:35:40.765Z,22.80
2023-04-18T01:38:27.165Z,24.90
2023-04-18T01:41:15.511Z,24.30
2023-04-18T01:44:02.213Z,22.70
2023-04-18T01:46:48.486Z,27.30
2023-04-18T01:49:35.620Z,21.60
2023-04-18T01:52:25.478Z,25.70
2023-04-18T01:55:12.264Z,25.60
2023-04-18T01:57:58.490Z,24.20
2023-04-18T02:00:45.328Z,28.90
2023-04-18T02:03:32.101Z,26.90
2023-04-18T02:06:18.832Z,24.70
2023-04-18T02:09:08.056Z,23.00
2023-04-18T02:11:58.651Z,23.70
2023-04-18T02:14:45.007Z,26.20
2023-04-18T02:17:31.369Z,22.30
2023-04-18T02:20:17.629Z,27.00
2023-04-18T02:23:03.744Z,23.70
2023-04-18T02:25:50.285Z,21.60
2023-04-18T02:28:38.526Z,24.70
2023-04-18T02:31:25.464Z,21.80
2023-04-18T02:34:12.508Z,24.40
2023-04-18T02:37:00.153Z,26.70
2023-04-18T02:39:47.183Z,25.40
2023-04-18T02:42:33.836Z,23.80
2023-04-18T02:45:21.193Z,22.10
2023-04-18T02:48:07.313Z,27.60
2023-04-18T02:51:02.769Z,25.90
2023-04-18T02:53:54.328Z,24.10
2023-04-18T02:56:42.658Z,23.00
2023-04-18T02:59:35.476Z,25.30
2023-04-18T03:02:49.608Z,26.00
2023-04-18T03:05:46.638Z,22.60
2023-04-18T03:08:34.515Z,22.40
2023-04-18T03:11:21.677Z,26.60
2023-04-18T03:14:08.442Z,26.20
2023-04-18T03:17:01.228Z,23.80
2023-04-18T03:19:51.958Z,26.10
2023-04-18T03:22:43.583Z,29.00
2023-04-18T03:25:31.518Z,24.60
2023-04-18T03:28:20.068Z,24.50
2023-04-18T03:31:06.832Z,26.60
2023-04-18T03:33:54.852Z,24.50
2023-04-18T03:36:41.419Z,28.80
2023-04-18T03:39:28.668Z,25.70
2023-04-18T03:42:16.172Z,27.20
2023-04-18T03:45:03.587Z,26.50
2023-04-18T03:47:51.373Z,26.60
2023-04-18T03:50:39.442Z,26.40
2023-04-18T03:53:32.465Z,26.00
2023-04-18T03:56:19.097Z,27.80
2023-04-18T03:59:12.564Z,26.40
2023-04-18T04:01:59.686Z,27.80
2023-04-18T04:04:46.859Z,23.10
2023-04-18T04:07:34.665Z,22.80
2023-04-18T04:10:21.298Z,22.90
2023-04-18T04:13:08.139Z,24.30
2023-04-18T04:15:56.887Z,22.50
2023-04-18T04:18:43.604Z,25.00
2023-04-18T04:21:32.086Z,19.80
2023-04-18T04:24:19.905Z,24.70
2023-04-18T04:27:07.626Z,21.20
2023-04-18T04:29:57.469Z,22.10
2023-04-18T04:32:45.858Z,19.80
2023-04-18T04:35:34.274Z,23.00
2023-04-18T04:38:25.063Z,22.90
2023-04-18T04:41:14.417Z,24.50
2023-04-18T04:44:01.284Z,19.80
2023-04-18T04:46:56.951Z,21.30
2023-04-18T04:49:48.944Z,20.20
2023-04-18T04:52:35.741Z,22.90
2023-04-18T04:55:22.844Z,23.00
2023-04-18T04:58:11.462Z,23.10
2023-04-18T05:01:16.276Z,22.90
2023-04-18T05:04:04.217Z,26.40
2023-04-18T05:06:51.072Z,25.10
2023-04-18T05:09:38.960Z,21.90
2023-04-18T05:12:27.098Z,19.60
2023-04-18T05:15:15.949Z,18.00
2023-04-18T05:18:03.052Z,19.20
2023-04-18T05:20:49.952Z,24.20
2023-04-18T05:23:37.385Z,20.00
2023-04-18T05:26:25.260Z,19.50
2023-04-18T05:29:13.110Z,22.50
2023-04-18T05:32:01.850Z,19.60
2023-04-18T05:34:48.754Z,19.20
2023-04-18T05:37:35.264Z,22.40
2023-04-18T05:40:21.667Z,19.40
2023-04-18T05:43:08.064Z,18.30
2023-04-18T05:45:58.263Z,17.10
2023-04-18T05:48:45.008Z,17.70
2023-04-18T05:51:31.491Z,17.50
2023-04-18T05:54:21.005Z,16.70
2023-04-18T05:57:07.864Z,16.00
2023-04-18T05:59:55.993Z,13.70
2023-04-18T06:02:42.664Z,13.70
2023-04-18T06:05:29.490Z,13.20
2023-04-18T06:08:16.188Z,14.50
2023-04-18T06:11:03.311Z,13.00
2023-04-18T06:13:49.331Z,12.30
2023-04-18T06:16:37.119Z,13.60
2023-04-18T06:19:23.660Z,12.40
2023-04-18T06:22:10.037Z,14.10
2023-04-18T06:25:00.052Z,13.40
2023-04-18T06:27:46.250Z,12.30
2023-04-18T06:30:32.321Z,11.80
2023-04-18T06:33:19.045Z,9.90
2023-04-18T06:36:06.749Z,11.20
2023-04-18T06:38:53.215Z,11.90
2023-04-18T06:41:39.464Z,11.30
2023-04-18T06:44:25.827Z,10.30
2023-04-18T06:47:13.214Z,10.20
2023-04-18T06:49:59.485Z,11.50
2023-04-18T06:52:45.919Z,10.80
2023-04-18T06:55:32.574Z,9.00
2023-04-18T06:58:18.646Z,9.80
2023-04-18T07:01:04.826Z,9.30
2023-04-18T07:03:51.291Z,10.40
2023-04-18T07:06:37.783Z,10.10
2023-04-18T07:09:24.308Z,8.80
2023-04-18T07:12:10.869Z,9.60
2023-04-18T07:14:58.052Z,8.90
2023-04-18T07:17:44.549Z,9.20
2023-04-18T07:20:31.903Z,8.70
2023-04-18T07:23:18.331Z,8.90
2023-04-18T07:26:05.130Z,9.20
2023-04-18T07:28:51.897Z,8.30
2023-04-18T07:31:37.988Z,8.30
2023-04-18T07:34:29.679Z,10.60
2023-04-18T07:37:17.804Z,8.90
2023-04-18T07:40:06.594Z,10.00
2023-04-18T07:42:53.106Z,7.80
2023-04-18T07:45:42.541Z,8.00
2023-04-18T07:48:28.831Z,8.80
2023-04-18T07:51:18.497Z,9.20
2023-04-18T07:54:05.334Z,8.40
2023-04-18T07:56:52.087Z,9.60
2023-04-18T07:59:38.673Z,13.20
2023-04-18T08:02:25.106Z,9.80
2023-04-18T08:05:12.048Z,10.30
2023-04-18T08:07:58.861Z,11.20
2023-04-18T08:10:45.766Z,10.10
2023-04-18T08:13:33.304Z,12.90
2023-04-18T08:16:20.632Z,10.90
2023-04-18T08:19:07.272Z,10.50
2023-04-18T08:21:53.920Z,13.30
2023-04-18T08:24:46.426Z,10.00
2023-04-18T08:27:38.034Z,10.50
2023-04-18T08:30:26.363Z,9.60
2023-04-18T08:33:12.790Z,8.60
2023-04-18T08:35:59.326Z,9.40
2023-04-18T08:38:46.125Z,8.40
2023-04-18T08:41:39.816Z,9.20
2023-04-18T08:44:30.238Z,9.50
2023-04-18T08:47:16.701Z,9.30
2023-04-18T08:50:06.724Z,8.30
2023-04-18T08:52:54.614Z,9.30
2023-04-18T08:55:41.421Z,10.50
2023-04-18T08:58:31.747Z,8.40
2023-04-18T09:01:17.720Z,10.60
2023-04-18T09:04:05.608Z,9.30
2023-04-18T09:06:52.694Z,8.70
2023-04-18T09:09:54.630Z,9.70
2023-04-18T09:12:52.239Z,8.20
2023-04-18T09:15:38.941Z,9.60
2023-04-18T09:18:26.867Z,10.50
2023-04-18T09:21:21.014Z,8.90
2023-04-18T09:24:23.483Z,8.60
2023-04-18T09:27:13.845Z,7.80
2023-04-18T09:30:00.644Z,8.90
2023-04-18T09:32:59.426Z,9.20
2023-04-18T09:35:46.529Z,9.00
2023-04-18T09:38:40.498Z,8.80
2023-04-18T09:41:27.055Z,7.90
2023-04-18T09:44:16.277Z,8.80
2023-04-18T09:47:02.763Z,7.70
2023-04-18T09:49:49.320Z,8.40
2023-04-18T09:52:41.526Z,8.50
2023-04-18T09:55:28.860Z,8.40
2023-04-18T09:58:18.995Z,10.00
2023-04-18T10:01:06.974Z,8.00
2023-04-18T10:03:55.195Z,8.80
2023-04-18T10:06:44.813Z,8.40
2023-04-18T10:09:32.805Z,8.60
2023-04-18T10:12:19.487Z,10.30
2023-04-18T10:15:10.600Z,8.50
2023-04-18T10:18:05.757Z,9.10
2023-04-18T10:21:00.892Z,13.10
2023-04-18T10:23:48.762Z,12.00
2023-04-18T10:26:49.543Z,9.70
2023-04-18T10:29:53.269Z,10.00
2023-04-18T10:32:39.895Z,10.30
2023-04-18T10:35:26.452Z,9.10
2023-04-18T10:38:16.808Z,8.60
2023-04-18T10:41:29.638Z,10.30
2023-04-18T10:44:19.086Z,11.30
2023-04-18T10:47:28.720Z,10.10
2023-04-18T10:50:16.856Z,11.30
2023-04-18T10:53:03.289Z,9.80
2023-04-18T10:55:54.759Z,11.20
2023-04-18T10:58:43.683Z,11.70
2023-04-18T11:01:32.869Z,10.70
2023-04-18T11:04:19.933Z,11.70
2023-04-18T11:07:07.112Z,12.60
2023-04-18T11:09:56.588Z,12.20
2023-04-18T11:12:43.150Z,10.90
2023-04-18T11:15:30.981Z,10.60
2023-04-18T11:18:18.007Z,12.10
2023-04-18T11:21:05.169Z,12.70
2023-04-18T11:23:51.695Z,13.80
2023-04-18T11:26:38.249Z,13.00
2023-04-18T11:29:24.883Z,11.40
2023-04-18T11:32:13.608Z,12.40
2023-04-18T11:35:00.040Z,12.90
2023-04-18T11:37:46.136Z,13.40
2023-04-18T11:40:32.612Z,15.00
2023-04-18T11:43:24.911Z,13.00
2023-04-18T11:46:12.815Z,15.00
2023-04-18T11:48:59.352Z,15.40
2023-04-18T11:51:46.849Z,14.70
2023-04-18T11:54:41.077Z,13.70
2023-04-18T11:57:29.725Z,13.50
2023-04-18T12:00:17.619Z,14.50
2023-04-18T12:03:11.851Z,14.60
2023-04-18T12:06:00.662Z,13.70
2023-04-18T12:08:47.169Z,12.90
2023-04-18T12:11:34.405Z,15.20
2023-04-18T12:14:21.716Z,14.40
2023-04-18T12:17:08.029Z,13.30
2023-04-18T12:19:54.963Z,14.30
2023-04-18T12:22:42.812Z,13.30
2023-04-18T12:25:30.204Z,14.30
2023-04-18T12:28:19.409Z,15.20
2023-04-18T12:31:08.440Z,16.70
2023-04-18T12:33:55.113Z,15.70
2023-04-18T12:36:42.379Z,13.40
2023-04-18T12:39:28.666Z,15.00
2023-04-18T12:42:15.250Z,15.30
2023-04-18T12:45:07.230Z,14.40
2023-04-18T12:47:53.685Z,15.20
2023-04-18T12:50:40.347Z,14.20
2023-04-18T12:53:26.847Z,16.10
2023-04-18T12:56:13.118Z,15.30
2023-04-18T12:58:59.095Z,15.90
2023-04-18T13:01:45.407Z,16.00
2023-04-18T13:04:31.843Z,15.70
2023-04-18T13:07:18.816Z,14.50
2023-04-18T13:10:07.709Z,14.50
2023-04-18T13:12:55.262Z,16.30
2023-04-18T13:15:41.975Z,15.90
2023-04-18T13:18:28.362Z,14.20
2023-04-18T13:21:14.578Z,13.40
2023-04-18T13:24:01.760Z,14.50
2023-04-18T13:26:47.828Z,16.30
2023-04-18T13:29:34.320Z,13.90
2023-04-18T13:32:20.917Z,15.70
2023-04-18T13:35:08.324Z,15.40
2023-04-18T13:37:54.726Z,16.30
2023-04-18T13:40:40.950Z,15.40
2023-04-18T13:43:27.252Z,15.60
2023-04-18T13:46:13.989Z,17.10
2023-04-18T13:49:01.871Z,14.70
2023-04-18T13:51:49.915Z,14.80
2023-04-18T13:54:37.095Z,14.70
2023-04-18T13:57:23.750Z,16.40
2023-04-18T14:00:13.325Z,15.00
2023-04-18T14:03:00.055Z,14.10
2023-04-18T14:05:46.469Z,14.90
2023-04-18T14:08:32.969Z,16.00
2023-04-18T14:11:20.482Z,15.40
2023-04-18T14:14:09.641Z,12.10
2023-04-18T14:16:58.627Z,16.20
2023-04-18T14:19:44.754Z,14.90
2023-04-18T14:22:31.061Z,13.90
2023-04-18T14:25:17.794Z,19.40
2023-04-18T14:28:12.843Z,17.10
2023-04-18T14:31:01.425Z,17.40
2023-04-18T14:33:49.014Z,15.10
2023-04-18T14:36:35.570Z,13.70
2023-04-18T14:39:21.980Z,11.60
2023-04-18T14:42:08.870Z,14.20
2023-04-18T14:44:57.240Z,19.90
2023-04-18T14:47:46.295Z,13.90
2023-04-18T14:50:33.142Z,9.90
2023-04-18T14:53:19.790Z,12.90
2023-04-18T14:56:07.003Z,15.00
2023-04-18T14:58:55.025Z,16.50
2023-04-18T15:01:41.291Z,14.30
2023-04-18T15:04:27.892Z,14.30
2023-04-18T15:07:14.771Z,17.50
2023-04-18T15:10:00.905Z,13.30
2023-04-18T15:12:50.433Z,12.50
2023-04-18T15:15:39.155Z,12.70
2023-04-18T15:18:25.958Z,10.10
2023-04-18T15:21:12.693Z,13.70
2023-04-18T15:24:00.438Z,9.80
2023-04-18T15:26:47.468Z,15.10
2023-04-18T15:29:33.978Z,13.40
2023-04-18T15:32:21.792Z,13.00
2023-04-18T15:35:11.340Z,11.30
2023-04-18T15:37:58.125Z,11.40
2023-04-18T15:40:45.931Z,14.60
2023-04-18T15:43:35.510Z,9.80
2023-04-18T15:46:22.816Z,11.80
2023-04-18T15:49:09.679Z,9.10
2023-04-18T15:51:56.289Z,8.10
2023-04-18T15:54:43.453Z,12.90
2023-04-18T15:57:30.792Z,10.80
2023-04-18T16:00:19.755Z,8.70
2023-04-18T16:03:09.318Z,11.30
2023-04-18T16:05:55.953Z,12.50
2023-04-18T16:08:42.367Z,10.60
2023-04-18T16:11:29.953Z,10.40
2023-04-18T16:14:19.869Z,10.40
2023-04-18T16:17:06.812Z,11.60
2023-04-18T16:19:54.409Z,11.00
2023-04-18T16:22:41.626Z,14.80
2023-04-18T16:25:30.178Z,11.20
2023-04-18T16:28:16.886Z,11.80
2023-04-18T16:31:06.185Z,13.20
2023-04-18T16:33:52.472Z,13.00
2023-04-18T16:36:42.159Z,15.40
2023-04-18T16:39:29.417Z,15.40
2023-04-18T16:42:17.174Z,12.70
2023-04-18T16:45:04.342Z,11.20
2023-04-18T16:47:50.674Z,10.40
2023-04-18T16:50:37.616Z,12.70
2023-04-18T16:53:24.907Z,10.70
2023-04-18T16:56:11.709Z,9.90
2023-04-18T16:59:03.632Z,13.40
2023-04-18T17:01:50.591Z,11.50
2023-04-18T17:04:39.519Z,15.00
2023-04-18T17:07:27.192Z,16.40
2023-04-18T17:10:13.353Z,14.30
2023-04-18T17:13:02.467Z,16.10
2023-04-18T17:15:49.569Z,15.40
2023-04-18T17:18:38.851Z,17.00
2023-04-18T17:21:26.777Z,13.10
2023-04-18T17:24:14.402Z,15.20
2023-04-18T17:27:03.187Z,18.10
2023-04-18T17:29:51.059Z,12.70
2023-04-18T17:32:44.310Z,16.10
2023-04-18T17:35:30.695Z,12.00
2023-04-18T17:38:17.574Z,11.90
2023-04-18T17:41:05.177Z,14.30
2023-04-18T17:43:57.481Z,13.30
2023-04-18T17:46:45.858Z,14.60
2023-04-18T17:49:36.385Z,10.60
2023-04-18T17:52:22.842Z,12.50
2023-04-18T17:55:12.154Z,14.90
2023-04-18T17:57:58.771Z,14.40
2023-04-18T18:00:45.923Z,13.10
2023-04-18T18:03:32.551Z,14.10
2023-04-18T18:06:19.472Z,14.00
2023-04-18T18:09:07.631Z,13.70
2023-04-18T18:11:58.222Z,12.20
2023-04-18T18:14:46.218Z,12.60
2023-04-18T18:17:32.822Z,15.50
2023-04-18T18:20:19.567Z,12.60
2023-04-18T18:23:06.215Z,16.10
2023-04-18T18:25:53.790Z,14.80
2023-04-18T18:28:43.661Z,13.10
2023-04-18T18:31:31.833Z,10.20
2023-04-18T18:34:21.590Z,12.40
2023-04-18T18:37:10.047Z,10.00
2023-04-18T18:39:59.459Z,11.40
2023-04-18T18:42:54.153Z,9.90
2023-04-18T18:45:40.722Z,16.40
2023-04-18T18:48:27.730Z,11.40
2023-04-18T18:51:18.506Z,19.20
2023-04-18T18:54:09.549Z,11.30
2023-04-18T18:56:56.561Z,11.90
2023-04-18T18:59:43.159Z,11.30
2023-04-18T19:02:35.445Z,12.80
2023-04-18T19:05:24.697Z,10.70
2023-04-18T19:08:12.084Z,11.10
2023-04-18T19:11:00.418Z,10.60
2023-04-18T19:13:53.298Z,12.20
2023-04-18T19:16:39.680Z,11.40
2023-04-18T19:19:27.466Z,10.60
2023-04-18T19:22:14.054Z,13.50
2023-04-18T19:25:01.619Z,13.00
2023-04-18T19:27:49.264Z,12.80
2023-04-18T19:30:36.647Z,9.80
2023-04-18T19:33:25.786Z,9.80
2023-04-18T19:36:16.977Z,11.50
2023-04-18T19:39:03.398Z,12.70
2023-04-18T19:41:50.042Z,11.10
2023-04-18T19:44:36.862Z,12.00
2023-04-18T19:47:25.353Z,9.50
2023-04-18T19:50:12.950Z,11.10
2023-04-18T19:53:00.443Z,9.80
2023-04-18T19:55:47.583Z,9.70
2023-04-18T19:58:44.539Z,9.80
2023-04-18T20:01:31.036Z,9.10
2023-04-18T20:04:17.741Z,12.60
2023-04-18T20:07:06.959Z,8.60
2023-04-18T20:09:53.849Z,10.40
2023-04-18T20:12:41.302Z,10.50
2023-04-18T20:15:30.562Z,12.00
2023-04-18T20:18:17.503Z,12.40
2023-04-18T20:21:07.006Z,11.70
2023-04-18T20:23:54.003Z,9.40
2023-04-18T20:26:45.930Z,10.30
2023-04-18T20:29:32.623Z,9.90
2023-04-18T20:32:19.203Z,9.00
2023-04-18T20:35:06.740Z,10.90
2023-04-18T20:37:54.727Z,10.40
2023-04-18T20:40:45.202Z,11.40
2023-04-18T20:43:35.998Z,16.40
2023-04-18T20:46:22.984Z,9.50
2023-04-18T20:49:09.449Z,11.20
2023-04-18T20:51:57.621Z,9.60
2023-04-18T20:54:44.053Z,11.10
2023-04-18T20:57:31.318Z,9.50
2023-04-18T21:00:18.456Z,16.70
2023-04-18T21:03:06.381Z,11.90
2023-04-18T21:05:54.133Z,13.70
2023-04-18T21:08:40.623Z,12.20
2023-04-18T21:11:29.464Z,11.10
2023-04-18T21:14:16.556Z,14.40
2023-04-18T21:17:03.032Z,10.40
2023-04-18T21:19:49.437Z,14.60
2023-04-18T21:22:38.595Z,9.30
2023-04-18T21:25:25.398Z,11.60
2023-04-18T21:28:12.172Z,9.60
2023-04-18T21:30:58.651Z,13.80
2023-04-18T21:33:45.370Z,11.00
2023-04-18T21:36:32.264Z,15.50
2023-04-18T21:39:19.101Z,14.60
2023-04-18T21:42:05.733Z,12.30
2023-04-18T21:44:54.699Z,9.40
2023-04-18T21:47:40.967Z,11.60
2023-04-18T21:50:28.623Z,12.20
2023-04-18T21:53:16.573Z,10.90
2023-04-18T21:56:02.999Z,14.70
2023-04-18T21:58:49.201Z,11.90
2023-04-18T22:01:37.730Z,10.00
2023-04-18T22:04:25.969Z,11.50
2023-04-18T22:07:15.156Z,12.70
2023-04-18T22:10:03.263Z,12.40
2023-04-18T22:12:55.359Z,11.20
2023-04-18T22:15:45.539Z,9.00
2023-04-18T22:18:33.217Z,9.10
2023-04-18T22:21:22.495Z,12.00
2023-04-18T22:24:09.053Z,10.10
2023-04-18T22:26:55.407Z,10.00
2023-04-18T22:29:42.015Z,10.40
2023-04-18T22:32:30.007Z,12.20
2023-04-18T22:35:16.766Z,9.60
2023-04-18T22:38:03.590Z,9.30
2023-04-18T22:40:50.231Z,9.50
2023-04-18T22:43:36.756Z,9.80
2023-04-18T22:46:24.315Z,9.40
2023-04-18T22:49:10.488Z,10.80
2023-04-18T22:51:58.114Z,9.50
2023-04-18T22:54:45.195Z,8.90
2023-04-18T22:57:32.361Z,12.00
2023-04-18T23:00:18.854Z,10.10
2023-04-18T23:03:08.800Z,10.90
2023-04-18T23:05:56.887Z,11.40
2023-04-18T23:08:43.713Z,10.10
2023-04-18T23:11:30.363Z,9.30
2023-04-18T23:14:16.797Z,10.60
2023-04-18T23:17:03.714Z,12.90
2023-04-18T23:19:50.523Z,11.30
2023-04-18T23:22:38.227Z,12.80
2023-04-18T23:25:25.877Z,10.60
2023-04-18T23:28:13.982Z,10.30
2023-04-18T23:30:59.991Z,9.00
2023-04-18T23:33:47.673Z,8.70
2023-04-18T23:36:34.379Z,10.90
2023-04-18T23:39:21.063Z,14.50
2023-04-18T23:42:07.605Z,10.40
2023-04-18T23:44:54.358Z,10.30
2023-04-18T23:47:40.523Z,9.80
2023-04-18T23:50:26.705Z,10.60
2023-04-18T23:53:13.436Z,8.50
2023-04-18T23:55:59.577Z,12.30
2023-04-18T23:58:46.113Z,8.10
